Terminal Aerodrome Forecast
Issued by NWS Cleveland, OH

Home | Current Version | Previous Version | Text Only | Print | Product List | Glossary On
Versions: 1 2 3 4 5 6 7 8 9 10 11 12 13 14 15 16 17 18 19
000
FTUS41 KCLE 210500 CCA
TAFYNG
TAF COR
KYNG 210543Z 2106/2206 20008KT P6SM BKN045 OVC080
     FM211000 22010KT P6SM VCTS SCT015CB BKN035
      TEMPO 2110/2114 3SM -SHRA BKN015
     FM211400 26010KT P6SM BKN020 OVC035
     FM212100 29014G20KT P6SM VCSH BKN030
     FM220400 33010KT P6SM BKN030=

USA.gov is the U.S. government's official web portal to all federal, state and local government web resources and services.